Time;durP1;ratioP1;P1;durP2;ratioP2;P2;SDS_P1;SDS_P2;PMS_P1;PMS_P2;Temp;Humidity;BMP_temperature;BMP_pressure;BME280_temperature;BME280_humidity;BME280_pressure;Samples;Min_cycle;Max_cycle;Signal;HPM_P1;HPM_P2
2022/09/09 00:01:54;;;;;;;4.63;0.77;;;16.50;99.90;;;;;;5034708;28;20386;-40
2022/09/09 00:04:29;;;;;;;3.15;1.08;;;16.50;99.90;;;;;;5030327;28;20025;-41
2022/09/09 00:07:17;;;;;;;1.10;1.00;;;16.50;99.90;;;;;;5015142;28;20025;-42
2022/09/09 00:10:01;;;;;;;3.15;0.73;;;16.40;99.90;;;;;;5028567;28;20511;-38
2022/09/09 00:12:43;;;;;;;4.25;0.85;;;16.40;99.90;;;;;;5014995;28;20029;-40
2022/09/09 00:15:16;;;;;;;1.50;0.88;;;16.40;99.90;;;;;;5014745;28;20085;-41
2022/09/09 00:18:01;;;;;;;4.63;1.05;;;16.50;99.90;;;;;;5014062;28;20033;-35
2022/09/09 00:20:41;;;;;;;1.15;0.98;;;16.50;99.90;;;;;;5034400;28;20022;-40
2022/09/09 00:23:19;;;;;;;1.00;0.90;;;16.40;99.90;;;;;;5034571;28;20500;-65
2022/09/09 00:26:29;;;;;;;7.75;1.10;;;16.40;99.90;;;;;;5033603;28;20539;-41
2022/09/09 00:29:00;;;;;;;2.63;0.90;;;16.40;99.90;;;;;;5044802;28;20091;-41
2022/09/09 00:31:29;;;;;;;2.35;0.90;;;16.30;99.90;;;;;;5033617;28;20485;-41
2022/09/09 00:34:09;;;;;;;3.17;0.70;;;16.30;99.90;;;;;;5032810;28;20037;-39
2022/09/09 00:36:36;;;;;;;2.25;1.58;;;16.30;99.90;;;;;;5032099;28;20025;-42
2022/09/09 00:39:02;;;;;;;;;;;16.20;99.90;;;;;;5034401;28;20049;-42
2022/09/09 00:41:40;;;;;;;3.45;0.98;;;16.20;99.90;;;;;;5043471;28;19913;-41
2022/09/09 00:44:36;;;;;;;2.40;1.08;;;16.20;99.90;;;;;;5045254;28;20025;-39
2022/09/09 00:47:10;;;;;;;1.48;1.00;;;16.20;99.90;;;;;;5032843;28;20382;-39
2022/09/09 00:49:38;;;;;;;1.58;1.30;;;16.20;99.90;;;;;;5023936;28;20037;-41
2022/09/09 00:52:18;;;;;;;1.02;1.02;;;16.20;99.90;;;;;;5030727;28;20025;-41
2022/09/09 00:55:11;;;;;;;2.35;1.05;;;16.10;99.90;;;;;;5032860;28;20044;-40
2022/09/09 00:57:38;;;;;;;3.25;1.38;;;16.10;99.90;;;;;;5045108;28;20043;-39
2022/09/09 01:00:22;;;;;;;3.50;1.40;;;16.00;99.90;;;;;;5027240;28;20029;-42
2022/09/09 01:02:52;;;;;;;2.30;1.00;;;16.00;99.90;;;;;;5013861;28;20108;-43
2022/09/09 01:05:34;;;;;;;3.28;1.23;;;16.00;99.90;;;;;;5025759;28;20492;-41
2022/09/09 01:08:03;;;;;;;4.22;1.27;;;16.00;99.90;;;;;;5033579;28;20036;-40
2022/09/09 01:10:50;;;;;;;1.63;1.23;;;15.90;99.90;;;;;;5025765;28;20028;-41
2022/09/09 01:13:24;;;;;;;;;;;15.90;99.90;;;;;;5053913;28;20021;-41
2022/09/09 01:15:53;;;;;;;5.22;1.35;;;15.90;99.90;;;;;;5012820;28;19921;-42
2022/09/09 01:18:22;;;;;;;1.55;1.25;;;15.90;99.90;;;;;;5028473;28;20379;-41
2022/09/09 01:21:18;;;;;;;11.38;1.65;;;15.80;99.90;;;;;;5031267;28;20097;-30
2022/09/09 01:23:48;;;;;;;3.97;1.30;;;15.80;99.90;;;;;;5033152;28;20028;-33
2022/09/09 01:26:52;;;;;;;4.28;1.52;;;15.80;99.90;;;;;;5043281;28;20032;-33
2022/09/09 01:29:20;;;;;;;7.57;1.25;;;15.80;99.90;;;;;;5040704;28;20057;-35
2022/09/09 01:31:54;;;;;;;5.35;1.67;;;15.80;99.90;;;;;;5020327;28;20037;-34
2022/09/09 01:34:20;;;;;;;6.50;2.20;;;15.80;99.90;;;;;;5025584;28;20030;-32
2022/09/09 01:37:06;;;;;;;1.90;1.38;;;15.70;99.90;;;;;;5044448;28;20049;-35
2022/09/09 01:39:34;;;;;;;2.63;1.30;;;15.70;99.90;;;;;;5052706;28;20021;-38
2022/09/09 01:42:00;;;;;;;;;;;15.70;99.90;;;;;;5034583;28;20033;-30
2022/09/09 01:44:26;;;;;;;4.60;1.38;;;15.70;99.90;;;;;;5032828;28;20361;-34
2022/09/09 01:46:52;;;;;;;2.95;1.90;;;15.70;99.90;;;;;;5030871;28;20036;-30
2022/09/09 01:49:18;;;;;;;3.97;1.67;;;15.70;99.90;;;;;;5022384;28;20022;-34
2022/09/09 01:51:48;;;;;;;1.80;1.63;;;15.70;99.90;;;;;;5013361;28;20422;-33
2022/09/09 01:54:14;;;;;;;4.05;1.88;;;15.70;99.90;;;;;;5013057;28;20046;-33
2022/09/09 01:56:48;;;;;;;3.38;2.10;;;15.70;99.90;;;;;;5041213;28;20060;-32
2022/09/09 01:59:32;;;;;;;3.83;1.90;;;15.70;99.90;;;;;;5052622;28;20029;-37
2022/09/09 02:02:01;;;;;;;4.05;1.85;;;15.70;99.90;;;;;;5041562;28;20545;-30
2022/09/09 02:04:38;;;;;;;3.40;2.20;;;15.70;99.90;;;;;;5031438;28;20032;-32
2022/09/09 02:07:29;;;;;;;2.72;2.10;;;15.70;99.90;;;;;;5031828;28;20029;-35
2022/09/09 02:10:21;;;;;;;3.03;2.22;;;15.60;99.90;;;;;;5030961;28;20030;-33
2022/09/09 02:13:05;;;;;;;3.65;1.88;;;15.60;99.90;;;;;;5033347;28;20481;-31
2022/09/09 02:15:43;;;;;;;5.35;3.03;;;15.60;99.90;;;;;;5034842;28;20017;-32
2022/09/09 02:18:12;;;;;;;5.82;2.35;;;15.60;99.90;;;;;;5036010;28;20033;-31
2022/09/09 02:20:38;;;;;;;3.00;2.70;;;15.60;99.90;;;;;;5036295;28;20381;-34
2022/09/09 02:23:08;;;;;;;4.55;2.50;;;15.50;99.90;;;;;;5064614;28;20033;-32
2022/09/09 02:25:36;;;;;;;4.38;2.67;;;15.50;99.90;;;;;;5035038;28;20568;-34
2022/09/09 02:28:06;;;;;;;4.68;2.40;;;15.50;99.90;;;;;;5056246;28;20388;-36
2022/09/09 02:30:34;;;;;;;8.10;2.25;;;15.50;99.90;;;;;;5026885;28;20025;-31
2022/09/09 02:33:03;;;;;;;3.47;2.13;;;15.50;99.90;;;;;;5039687;28;20022;-33
2022/09/09 02:35:32;;;;;;;2.92;2.22;;;15.40;99.90;;;;;;5034519;28;20230;-30
2022/09/09 02:38:03;;;;;;;4.07;2.40;;;15.50;99.90;;;;;;5035989;28;20045;-33
2022/09/09 02:40:29;;;;;;;3.53;2.28;;;15.50;99.90;;;;;;5040416;28;20021;-34
2022/09/09 02:42:55;;;;;;;4.47;2.75;;;15.50;99.90;;;;;;5055072;28;20079;-39
2022/09/09 02:45:25;;;;;;;5.22;2.42;;;15.50;99.90;;;;;;5047499;28;20409;-33
2022/09/09 02:47:59;;;;;;;5.75;2.47;;;15.50;99.90;;;;;;5034452;28;20026;-33
2022/09/09 02:50:30;;;;;;;3.38;2.50;;;15.50;99.90;;;;;;5029499;28;20025;-40
2022/09/09 02:53:21;;;;;;;4.00;2.65;;;15.50;99.90;;;;;;5056271;28;20472;-39
2022/09/09 02:56:09;;;;;;;4.20;2.35;;;15.40;99.90;;;;;;5049301;28;20048;-34
2022/09/09 02:58:36;;;;;;;3.95;2.63;;;15.50;99.90;;;;;;5045458;28;20034;-33
2022/09/09 03:01:02;;;;;;;3.85;2.30;;;15.50;99.90;;;;;;5035707;28;20071;-33
2022/09/09 03:03:28;;;;;;;4.35;2.72;;;15.50;99.90;;;;;;5028158;28;20058;-30
2022/09/09 03:05:54;;;;;;;5.07;2.92;;;15.50;99.90;;;;;;5026803;28;20025;-34
2022/09/09 03:08:20;;;;;;;5.53;2.45;;;15.50;99.90;;;;;;5034856;28;20040;-35
2022/09/09 03:10:45;;;;;;;5.30;2.85;;;15.40;99.90;;;;;;5042207;28;20036;-30
2022/09/09 03:13:12;;;;;;;5.43;2.45;;;15.50;99.90;;;;;;5044095;28;20101;-32
2022/09/09 03:15:38;;;;;;;3.60;2.22;;;15.50;99.90;;;;;;5016006;28;20026;-32
2022/09/09 03:18:04;;;;;;;4.53;2.35;;;15.50;99.90;;;;;;5015800;28;20033;-36
2022/09/09 03:20:30;;;;;;;3.05;2.47;;;15.40;99.90;;;;;;5015584;28;20029;-30
2022/09/09 03:22:56;;;;;;;4.43;2.70;;;15.30;99.90;;;;;;5014698;28;20029;-35
2022/09/09 03:25:26;;;;;;;3.75;2.53;;;15.30;99.90;;;;;;5020029;28;20025;-36
2022/09/09 03:27:54;;;;;;;13.48;3.03;;;15.30;99.90;;;;;;5055207;28;20382;-33
2022/09/09 03:30:24;;;;;;;4.03;2.90;;;15.20;99.90;;;;;;5055116;28;20032;-35
2022/09/09 03:32:50;;;;;;;7.70;2.97;;;15.20;99.90;;;;;;5038521;28;20560;-32
2022/09/09 03:35:16;;;;;;;5.75;2.63;;;15.20;99.90;;;;;;5035144;28;20025;-35
2022/09/09 03:37:42;;;;;;;3.50;2.85;;;15.20;99.90;;;;;;5033802;28;20068;-31
2022/09/09 03:40:09;;;;;;;7.10;2.60;;;15.10;99.90;;;;;;5035330;28;20053;-36
2022/09/09 03:42:36;;;;;;;7.13;2.97;;;15.10;99.90;;;;;;5050009;28;20013;-33
2022/09/09 03:45:03;;;;;;;6.90;2.83;;;15.10;99.90;;;;;;5015215;28;20076;-31
2022/09/09 03:47:29;;;;;;;4.20;2.73;;;15.10;99.90;;;;;;5015459;28;20505;-33
2022/09/09 03:49:55;;;;;;;6.50;2.40;;;15.10;99.90;;;;;;5035623;28;20028;-32
2022/09/09 03:52:24;;;;;;;6.82;2.20;;;15.20;99.90;;;;;;5054772;28;20056;-30
2022/09/09 03:54:50;;;;;;;3.83;2.10;;;15.10;99.90;;;;;;5054913;28;20029;-43
2022/09/09 03:57:17;;;;;;;2.25;2.03;;;15.10;99.90;;;;;;5044641;28;20025;-30
2022/09/09 03:59:43;;;;;;;5.03;2.17;;;15.10;99.90;;;;;;5035422;28;20406;-32
2022/09/09 04:02:09;;;;;;;5.00;2.67;;;15.10;99.90;;;;;;5014573;28;20087;-32
2022/09/09 04:04:38;;;;;;;4.70;3.10;;;15.10;99.90;;;;;;5027052;28;20104;-34
2022/09/09 04:07:06;;;;;;;3.78;2.08;;;15.10;99.90;;;;;;5033809;28;20519;-48
2022/09/09 04:09:32;;;;;;;5.07;2.22;;;15.00;99.90;;;;;;5027137;28;20415;-33
2022/09/09 04:11:58;;;;;;;4.57;2.58;;;15.10;99.90;;;;;;5020358;28;20045;-30
2022/09/09 04:14:28;;;;;;;3.50;2.20;;;15.10;99.90;;;;;;5027200;28;20109;-31
2022/09/09 04:16:55;;;;;;;4.30;2.15;;;15.10;99.90;;;;;;5023312;28;20088;-34
2022/09/09 04:19:21;;;;;;;6.28;2.38;;;15.10;99.90;;;;;;5038739;28;20017;-31
2022/09/09 04:21:49;;;;;;;4.28;2.25;;;15.10;99.90;;;;;;5052942;28;20021;-32
2022/09/09 04:24:16;;;;;;;5.10;2.15;;;15.10;99.90;;;;;;5054222;28;20501;-31
2022/09/09 04:26:41;;;;;;;3.33;2.25;;;15.10;99.90;;;;;;5032937;28;20084;-34
2022/09/09 04:29:07;;;;;;;3.35;2.17;;;15.10;99.90;;;;;;5014324;28;20026;-33
2022/09/09 04:31:33;;;;;;;3.72;1.90;;;15.10;99.90;;;;;;5019700;28;20533;-33
2022/09/09 04:34:04;;;;;;;6.05;2.15;;;15.10;99.90;;;;;;5033929;28;20505;-32
2022/09/09 04:36:31;;;;;;;5.05;2.03;;;15.10;99.90;;;;;;5041493;28;20036;-33
2022/09/09 04:38:57;;;;;;;4.80;1.55;;;15.10;99.90;;;;;;5053855;28;20029;-34
2022/09/09 04:41:23;;;;;;;2.13;1.70;;;15.10;99.90;;;;;;5051184;28;20059;-38
2022/09/09 04:43:49;;;;;;;5.00;1.95;;;15.10;99.90;;;;;;5034677;28;20382;-34
2022/09/09 04:46:18;;;;;;;4.10;2.17;;;15.10;99.90;;;;;;5026049;28;20021;-32
2022/09/09 04:48:44;;;;;;;2.28;2.08;;;15.10;99.90;;;;;;5049638;28;20111;-33
2022/09/09 04:51:12;;;;;;;4.65;2.00;;;15.10;99.90;;;;;;5033989;28;20592;-35
2022/09/09 04:53:40;;;;;;;2.80;1.70;;;15.20;99.90;;;;;;5033741;28;20058;-31
2022/09/09 04:56:14;;;;;;;4.80;1.98;;;15.20;99.90;;;;;;5036427;28;20020;-36
2022/09/09 04:58:43;;;;;;;2.67;1.65;;;15.20;99.90;;;;;;5053492;28;20033;-40
2022/09/09 05:01:17;;;;;;;6.00;1.70;;;15.10;99.90;;;;;;5028260;28;20489;-30
2022/09/09 05:03:45;;;;;;;9.45;2.08;;;15.10;99.90;;;;;;5014066;28;20022;-33
2022/09/09 05:06:12;;;;;;;;;;;15.20;99.90;;;;;;5023638;28;20025;-40
2022/09/09 05:08:38;;;;;;;10.15;1.92;;;15.20;99.90;;;;;;5051837;28;19909;-34
2022/09/09 05:11:20;;;;;;;7.15;1.77;;;15.20;99.90;;;;;;5050715;28;20463;-32
2022/09/09 05:13:46;;;;;;;5.13;1.40;;;15.20;99.90;;;;;;5051788;28;20395;-34
2022/09/09 05:16:12;;;;;;;5.65;1.90;;;15.20;99.90;;;;;;5053229;28;20021;-35
2022/09/09 05:18:39;;;;;;;2.67;1.48;;;15.20;99.90;;;;;;5020554;28;20022;-31
2022/09/09 05:21:06;;;;;;;6.35;2.00;;;15.20;99.90;;;;;;5042312;28;20025;-33
2022/09/09 05:23:33;;;;;;;3.00;1.80;;;15.20;99.90;;;;;;5053142;28;20366;-33
2022/09/09 05:26:00;;;;;;;6.72;1.92;;;15.20;99.90;;;;;;5052276;28;20052;-40
2022/09/09 05:28:26;;;;;;;2.67;1.80;;;15.30;99.90;;;;;;5047221;28;20036;-29
2022/09/09 05:31:07;;;;;;;1.98;1.60;;;15.30;99.90;;;;;;5052967;28;20094;-32
2022/09/09 05:33:34;;;;;;;1.95;1.52;;;15.30;99.90;;;;;;5035467;28;20112;-30
2022/09/09 05:36:03;;;;;;;10.17;2.77;;;15.30;99.90;;;;;;5017031;28;20053;-36
2022/09/09 05:38:30;;;;;;;3.85;1.70;;;15.30;99.90;;;;;;5037639;28;20045;-30
2022/09/09 05:40:56;;;;;;;11.35;1.83;;;15.40;99.90;;;;;;5032952;28;20022;-32
2022/09/09 05:43:22;;;;;;;4.82;2.10;;;15.30;99.90;;;;;;5034671;28;20014;-32
2022/09/09 05:45:48;;;;;;;4.60;1.98;;;15.40;99.90;;;;;;5032789;28;20014;-35
2022/09/09 05:48:17;;;;;;;6.40;1.77;;;15.40;99.90;;;;;;5031437;28;20478;-39
2022/09/09 05:50:52;;;;;;;6.00;2.17;;;15.40;99.90;;;;;;5012990;28;20507;-32
2022/09/09 05:53:18;;;;;;;12.70;2.03;;;15.50;99.90;;;;;;5013134;28;20071;-31
2022/09/09 05:55:45;;;;;;;3.92;1.83;;;15.50;99.90;;;;;;5032143;28;20100;-32
2022/09/09 05:58:10;;;;;;;4.10;2.22;;;15.60;99.90;;;;;;5031981;28;20469;-39
2022/09/09 06:00:37;;;;;;;10.38;2.40;;;15.60;99.90;;;;;;5025064;28;20076;-34
2022/09/09 06:03:03;;;;;;;7.43;1.88;;;15.60;99.90;;;;;;5012660;28;20033;-32
2022/09/09 06:05:30;;;;;;;8.15;2.20;;;15.70;99.90;;;;;;5012757;28;20093;-32
2022/09/09 06:07:55;;;;;;;7.15;2.20;;;15.70;99.90;;;;;;5012916;28;20030;-37
2022/09/09 06:10:22;;;;;;;8.23;1.83;;;15.70;99.90;;;;;;5012779;28;20033;-34
2022/09/09 06:12:47;;;;;;;5.45;2.13;;;15.80;99.90;;;;;;5028946;28;20105;-33
2022/09/09 06:15:13;;;;;;;7.47;2.00;;;15.70;99.90;;;;;;5052563;28;20480;-39
2022/09/09 06:17:39;;;;;;;3.30;1.80;;;15.80;99.90;;;;;;5052396;28;20036;-40
2022/09/09 06:20:05;;;;;;;6.53;2.17;;;15.90;99.90;;;;;;5038366;28;20052;-33
2022/09/09 06:22:33;;;;;;;6.30;2.40;;;15.90;99.90;;;;;;5036293;28;20611;-34
2022/09/09 06:25:00;;;;;;;8.40;1.90;;;15.90;99.90;;;;;;5051500;28;20025;-36
2022/09/09 06:27:28;;;;;;;3.45;1.63;;;16.00;99.90;;;;;;5050447;28;20043;-32
2022/09/09 06:29:54;;;;;;;4.13;1.73;;;16.10;99.90;;;;;;5040308;28;20363;-34
2022/09/09 06:32:19;;;;;;;11.00;1.95;;;16.20;99.90;;;;;;5031479;28;20021;-33
2022/09/09 06:34:45;;;;;;;6.82;1.95;;;16.20;99.90;;;;;;5030963;28;20465;-36
2022/09/09 06:37:11;;;;;;;3.80;1.30;;;16.30;99.90;;;;;;5020943;28;20046;-33
2022/09/09 06:39:36;;;;;;;5.05;1.35;;;16.30;99.90;;;;;;5012666;28;20049;-42
2022/09/09 06:42:02;;;;;;;14.65;2.55;;;16.40;99.90;;;;;;5014652;28;20053;-41
2022/09/09 06:44:28;;;;;;;4.82;2.17;;;16.40;99.90;;;;;;5026370;28;20030;-33
2022/09/09 06:46:53;;;;;;;9.13;1.85;;;16.40;99.90;;;;;;5012534;28;20093;-35
2022/09/09 06:49:19;;;;;;;4.63;1.85;;;16.50;99.90;;;;;;5019536;28;20075;-33
2022/09/09 06:51:44;;;;;;;4.85;1.30;;;16.50;99.90;;;;;;5032243;28;20533;-34
2022/09/09 06:54:12;;;;;;;4.85;1.73;;;16.60;99.90;;;;;;5031387;28;20025;-34
2022/09/09 06:56:43;;;;;;;4.68;1.30;;;16.80;99.90;;;;;;5033107;28;20033;-34
2022/09/09 06:59:09;;;;;;;4.97;1.95;;;17.00;99.90;;;;;;5048041;28;20060;-34
2022/09/09 07:01:37;;;;;;;10.70;1.65;;;17.20;99.90;;;;;;5046701;28;20489;-30
2022/09/09 07:04:07;;;;;;;10.75;1.80;;;17.40;99.90;;;;;;5039563;28;20093;-33
2022/09/09 07:06:35;;;;;;;4.75;1.38;;;17.50;99.90;;;;;;5033758;28;20492;-31
2022/09/09 07:09:04;;;;;;;7.05;1.55;;;17.50;99.90;;;;;;5040902;28;20473;-32
2022/09/09 07:11:32;;;;;;;7.25;1.90;;;17.60;99.90;;;;;;5049511;28;20025;-35
2022/09/09 07:13:59;;;;;;;4.85;1.88;;;17.60;99.90;;;;;;5020506;28;20033;-34
2022/09/09 07:16:27;;;;;;;4.57;1.65;;;17.60;99.90;;;;;;5017638;28;21254;-36
2022/09/09 07:18:57;;;;;;;;;;;17.70;99.90;;;;;;5033250;28;20032;-31
2022/09/09 07:21:24;;;;;;;8.40;2.00;;;17.60;99.90;;;;;;5034906;28;19909;-40
2022/09/09 07:23:50;;;;;;;7.18;1.73;;;17.60;99.90;;;;;;5035649;28;20390;-31
2022/09/09 07:26:19;;;;;;;6.35;1.88;;;17.60;99.90;;;;;;5034988;28;20028;-36
2022/09/09 07:28:45;;;;;;;7.22;1.50;;;17.60;99.90;;;;;;5030755;28;20037;-38
2022/09/09 07:31:32;;;;;;;6.45;1.63;;;17.70;99.90;;;;;;5030149;28;20018;-50
2022/09/09 07:33:59;;;;;;;3.97;1.40;;;17.70;99.90;;;;;;5034291;28;20029;-40
2022/09/09 07:36:28;;;;;;;10.68;1.75;;;17.70;99.90;;;;;;5035053;28;20364;-40
2022/09/09 07:38:56;;;;;;;4.88;1.40;;;17.70;99.90;;;;;;5034867;28;20124;-50
2022/09/09 07:41:28;;;;;;;4.10;1.30;;;17.70;99.90;;;;;;5035142;28;20022;-42
2022/09/09 07:43:54;;;;;;;2.10;1.30;;;17.70;99.90;;;;;;5034865;28;20481;-40
2022/09/09 07:46:22;;;;;;;7.43;1.75;;;17.70;99.90;;;;;;5046478;28;20024;-35
2022/09/09 07:48:53;;;;;;;4.93;1.90;;;17.70;99.90;;;;;;5041322;28;20044;-34
2022/09/09 07:51:22;;;;;;;6.65;1.45;;;17.60;99.90;;;;;;5033351;28;20040;-32
2022/09/09 07:53:52;;;;;;;3.83;1.40;;;17.60;99.90;;;;;;5034341;28;20060;-36
2022/09/09 07:56:23;;;;;;;5.05;1.60;;;17.60;99.90;;;;;;5034813;28;20025;-32
2022/09/09 07:58:52;;;;;;;10.25;1.70;;;17.60;99.90;;;;;;5033919;28;20104;-38
2022/09/09 08:01:22;;;;;;;4.30;1.65;;;17.60;99.90;;;;;;5034141;28;20072;-31
2022/09/09 08:04:00;;;;;;;12.40;1.30;;;17.70;99.90;;;;;;5034564;28;20354;-32
2022/09/09 08:06:37;;;;;;;5.53;1.98;;;17.60;99.90;;;;;;5027875;28;20421;-32
2022/09/09 08:09:04;;;;;;;10.05;1.90;;;17.60;99.90;;;;;;5015890;28;20541;-31
2022/09/09 08:11:30;;;;;;;12.25;2.58;;;17.60;99.90;;;;;;5023706;28;20034;-32
2022/09/09 08:13:56;;;;;;;6.03;1.65;;;17.50;99.90;;;;;;5025819;28;20033;-35
2022/09/09 08:16:27;;;;;;;14.48;2.75;;;17.60;99.90;;;;;;5032603;28;20024;-35
2022/09/09 08:18:54;;;;;;;6.03;1.85;;;17.70;99.90;;;;;;5019940;28;20030;-34
2022/09/09 08:21:27;;;;;;;9.27;1.60;;;17.70;99.90;;;;;;5033102;28;20112;-39
2022/09/09 08:23:54;;;;;;;5.50;1.25;;;17.80;99.90;;;;;;5034506;28;20029;-40
2022/09/09 08:26:26;;;;;;;4.30;1.45;;;17.80;99.90;;;;;;5015639;28;20049;-40
2022/09/09 08:28:53;;;;;;;1.33;1.13;;;17.80;99.90;;;;;;5027883;28;20444;-39
2022/09/09 08:31:27;;;;;;;2.05;1.30;;;17.80;99.90;;;;;;5034106;28;20113;-40
2022/09/09 08:33:54;;;;;;;10.75;1.90;;;17.80;99.90;;;;;;5033603;28;20068;-39
2022/09/09 08:36:23;;;;;;;4.32;1.40;;;17.80;99.90;;;;;;5032724;28;20133;-40
2022/09/09 08:38:50;;;;;;;11.27;1.98;;;17.80;99.90;;;;;;5033798;28;20524;-40
2022/09/09 08:41:16;;;;;;;3.70;1.20;;;17.80;99.90;;;;;;5034048;28;20067;-40
2022/09/09 08:43:45;;;;;;;5.95;1.63;;;17.80;99.90;;;;;;5032741;28;20030;-40
2022/09/09 08:46:18;;;;;;;4.25;1.40;;;17.80;99.90;;;;;;5033477;28;20484;-41
2022/09/09 08:48:57;;;;;;;9.20;1.15;;;17.90;99.90;;;;;;5033261;28;20029;-53
2022/09/09 08:51:27;;;;;;;5.10;1.75;;;17.90;99.90;;;;;;5033059;28;20025;-41
2022/09/09 08:53:54;;;;;;;7.15;1.60;;;18.00;99.90;;;;;;5033876;28;20030;-60
2022/09/09 08:56:25;;;;;;;5.70;1.40;;;17.90;99.90;;;;;;5032326;28;20420;-32
2022/09/09 08:58:53;;;;;;;5.10;1.75;;;17.90;99.90;;;;;;5020030;28;20041;-35
2022/09/09 09:01:40;;;;;;;6.00;1.33;;;17.90;99.90;;;;;;5031813;28;20033;-36
2022/09/09 09:04:27;;;;;;;6.53;1.60;;;17.90;99.90;;;;;;5030646;28;20485;-41
2022/09/09 09:07:14;;;;;;;2.83;1.30;;;17.90;99.90;;;;;;5013528;28;20528;-36
2022/09/09 09:09:58;;;;;;;5.80;0.80;;;17.90;99.90;;;;;;5020380;28;20025;-30
2022/09/09 09:12:26;;;;;;;6.45;2.15;;;17.90;99.90;;;;;;5033280;28;20101;-37
2022/09/09 09:14:55;;;;;;;5.30;1.35;;;17.90;99.90;;;;;;5018797;28;20028;-36
2022/09/09 09:17:23;;;;;;;8.27;1.40;;;17.90;99.90;;;;;;5015822;28;20501;-38
2022/09/09 09:19:49;;;;;;;3.05;1.40;;;17.90;99.90;;;;;;5017328;28;20561;-34
2022/09/09 09:22:15;;;;;;;7.28;1.70;;;17.90;99.90;;;;;;5028549;28;20069;-37
2022/09/09 09:24:52;;;;;;;6.43;1.90;;;17.90;99.90;;;;;;5019257;28;21475;-33
2022/09/09 09:27:40;;;;;;;5.97;1.38;;;17.90;99.90;;;;;;5013246;28;20057;-31
2022/09/09 09:30:17;;;;;;;4.95;1.48;;;17.90;99.90;;;;;;5017439;28;20212;-37
2022/09/09 09:33:08;;;;;;;10.30;1.92;;;17.90;99.90;;;;;;5024287;28;20026;-39
2022/09/09 09:35:34;;;;;;;1.58;1.00;;;17.90;99.90;;;;;;5021762;28;20560;-32
2022/09/09 09:38:00;;;;;;;4.18;1.50;;;17.90;99.90;;;;;;5022824;28;20042;-37
2022/09/09 09:40:30;;;;;;;3.80;1.42;;;17.90;99.90;;;;;;5017565;28;20046;-43
2022/09/09 09:43:00;;;;;;;5.60;1.52;;;17.90;99.90;;;;;;5017470;28;20055;-34
2022/09/09 09:45:44;;;;;;;6.43;1.45;;;17.80;99.90;;;;;;5026796;28;20124;-30
2022/09/09 09:48:12;;;;;;;6.00;1.70;;;17.80;99.90;;;;;;5018957;28;20017;-33
2022/09/09 09:50:50;;;;;;;9.35;2.38;;;17.80;99.90;;;;;;5028688;28;20026;-35
2022/09/09 09:53:34;;;;;;;14.85;1.73;;;17.80;99.90;;;;;;5020868;28;20026;-35
2022/09/09 09:56:04;;;;;;;6.15;1.88;;;17.80;99.90;;;;;;5013080;28;20422;-31
2022/09/09 09:58:38;;;;;;;7.35;1.58;;;17.80;99.90;;;;;;5022797;28;20037;-35
2022/09/09 10:01:04;;;;;;;10.15;1.88;;;17.80;99.90;;;;;;5016637;28;20493;-34
2022/09/09 10:03:32;;;;;;;4.55;1.42;;;17.90;99.90;;;;;;5020186;28;20037;-33
2022/09/09 10:05:58;;;;;;;6.80;1.90;;;17.90;99.90;;;;;;5027885;28;20025;-35
2022/09/09 10:08:26;;;;;;;7.80;2.30;;;18.00;99.90;;;;;;5025560;28;20114;-32
2022/09/09 10:11:42;;;;;;;5.20;1.50;;;18.10;99.90;;;;;;5012610;28;20037;-32
2022/09/09 10:14:19;;;;;;;5.10;2.07;;;18.10;99.90;;;;;;5019021;28;20112;-37
2022/09/09 10:17:03;;;;;;;5.60;1.85;;;18.00;99.90;;;;;;5019804;28;20030;-33
2022/09/09 10:19:35;;;;;;;2.88;1.30;;;17.80;99.90;;;;;;5014335;28;20390;-33
2022/09/09 10:22:27;;;;;;;8.38;1.45;;;17.60;99.90;;;;;;5017631;28;20025;-31
2022/09/09 10:25:15;;;;;;;2.22;1.33;;;17.50;99.90;;;;;;5011561;28;20390;-32
2022/09/09 10:28:09;;;;;;;5.55;1.80;;;17.50;99.90;;;;;;5015186;28;20084;-61
2022/09/09 10:30:43;;;;;;;7.78;1.70;;;17.50;99.90;;;;;;5028308;28;20041;-37
2022/09/09 10:33:48;;;;;;;7.55;2.63;;;17.60;99.90;;;;;;5036445;28;20045;-35
2022/09/09 10:36:29;;;;;;;3.78;1.35;;;17.80;99.90;;;;;;5029237;28;20049;-37
2022/09/09 10:39:03;;;;;;;7.75;1.77;;;17.90;99.90;;;;;;5017588;28;20032;-35
2022/09/09 10:41:32;;;;;;;9.48;1.92;;;18.00;99.90;;;;;;5020404;28;20474;-37
2022/09/09 10:44:20;;;;;;;4.63;2.03;;;17.90;99.90;;;;;;5029858;28;20030;-34
2022/09/09 10:47:05;;;;;;;3.00;1.27;;;17.90;99.90;;;;;;5016649;28;20034;-39
2022/09/09 10:49:33;;;;;;;2.63;1.38;;;17.90;99.90;;;;;;5018582;28;20044;-40
2022/09/09 10:52:17;;;;;;;3.75;1.52;;;17.80;99.90;;;;;;5041639;28;20045;-41
2022/09/09 10:54:51;;;;;;;4.88;1.60;;;17.80;99.90;;;;;;5043468;28;20517;-49
2022/09/09 10:57:29;;;;;;;4.90;2.08;;;18.00;99.90;;;;;;5027834;28;20073;-39
2022/09/09 10:59:59;;;;;;;4.70;1.83;;;18.00;99.90;;;;;;5017726;28;20026;-40
2022/09/09 11:02:30;;;;;;;10.55;1.30;;;18.00;99.90;;;;;;5023731;28;20482;-40
2022/09/09 11:05:19;;;;;;;6.13;1.95;;;18.00;99.90;;;;;;5033308;28;20033;-42
2022/09/09 11:07:53;;;;;;;4.82;1.85;;;18.00;99.90;;;;;;5015423;28;20559;-39
2022/09/09 11:10:42;;;;;;;4.15;2.08;;;18.00;99.90;;;;;;5016242;28;20022;-41
2022/09/09 11:13:24;;;;;;;5.93;1.88;;;18.00;99.90;;;;;;5026864;28;20112;-40
2022/09/09 11:16:14;;;;;;;3.05;1.60;;;18.00;99.90;;;;;;5018623;28;20033;-39
2022/09/09 11:18:42;;;;;;;3.63;1.40;;;18.00;99.90;;;;;;5018368;28;20403;-42
2022/09/09 11:21:23;;;;;;;10.95;1.52;;;18.00;99.90;;;;;;5017348;28;20037;-41
2022/09/09 11:24:14;;;;;;;6.22;1.75;;;18.00;99.90;;;;;;5027476;28;20033;-41
2022/09/09 11:26:56;;;;;;;6.88;1.52;;;18.10;99.90;;;;;;5030868;28;20497;-38
2022/09/09 11:29:44;;;;;;;2.65;1.13;;;18.10;99.90;;;;;;5026849;28;20036;-42
2022/09/09 11:32:49;;;;;;;4.28;1.17;;;18.10;99.90;;;;;;5028293;28;20029;-40
2022/09/09 11:35:34;;;;;;;6.03;1.33;;;18.00;99.90;;;;;;5031066;28;20477;-41
2022/09/09 11:38:26;;;;;;;3.10;1.55;;;18.00;99.90;;;;;;5017339;28;20493;-40
2022/09/09 11:41:02;;;;;;;11.55;1.75;;;17.80;99.90;;;;;;5017231;28;20140;-40
2022/09/09 11:43:39;;;;;;;3.38;1.50;;;17.90;99.90;;;;;;5025677;28;20021;-42
2022/09/09 11:46:07;;;;;;;1.88;1.40;;;17.80;99.90;;;;;;5024811;28;20025;-41
2022/09/09 11:48:35;;;;;;;2.88;1.15;;;17.80;99.90;;;;;;5017793;28;20061;-42
2022/09/09 11:51:26;;;;;;;3.08;1.50;;;17.70;99.90;;;;;;5066205;28;20022;-42
2022/09/09 11:53:53;;;;;;;4.03;1.63;;;17.60;99.90;;;;;;5016393;28;20050;-41
2022/09/09 11:56:45;;;;;;;5.50;1.35;;;17.60;99.90;;;;;;5024016;28;20482;-41
2022/09/09 11:59:29;;;;;;;7.32;1.35;;;17.70;99.90;;;;;;5027089;28;20496;-41
2022/09/09 12:02:23;;;;;;;2.72;1.52;;;17.80;99.90;;;;;;5024136;28;20369;-43
2022/09/09 12:04:57;;;;;;;5.20;1.98;;;17.80;99.90;;;;;;5025291;28;20096;-40
2022/09/09 12:07:35;;;;;;;5.22;2.35;;;17.90;99.90;;;;;;5018614;28;20441;-41
2022/09/09 12:10:19;;;;;;;4.10;1.23;;;17.90;99.90;;;;;;5032453;28;20432;-40
2022/09/09 12:12:44;;;;;;;3.80;2.03;;;18.00;99.90;;;;;;5020414;28;20018;-41
2022/09/09 12:15:10;;;;;;;3.90;1.52;;;18.10;99.90;;;;;;5042377;28;20414;-42
2022/09/09 12:17:45;;;;;;;5.85;1.80;;;18.30;99.90;;;;;;5020441;28;20470;-44
2022/09/09 12:20:17;;;;;;;3.83;1.98;;;18.50;99.90;;;;;;5049936;28;20367;-41
2022/09/09 12:23:09;;;;;;;4.57;2.10;;;18.70;99.90;;;;;;5025514;28;20032;-39
2022/09/09 12:26:11;;;;;;;3.15;1.60;;;18.80;99.90;;;;;;5016520;28;20045;-40
2022/09/09 12:29:07;;;;;;;3.65;1.30;;;18.80;99.90;;;;;;5023789;28;20036;-45
2022/09/09 12:31:36;;;;;;;3.60;2.00;;;18.80;99.90;;;;;;5014269;28;20569;-37
2022/09/09 12:34:27;;;;;;;6.40;1.95;;;18.90;99.90;;;;;;5013439;28;20329;-38
2022/09/09 12:37:00;;;;;;;3.17;1.58;;;18.90;99.90;;;;;;5013979;28;20606;-36
2022/09/09 12:39:41;;;;;;;5.45;1.77;;;19.20;99.90;;;;;;5023560;28;20033;-40
2022/09/09 12:42:16;;;;;;;5.28;1.80;;;19.30;99.90;;;;;;5016295;28;20029;-44
2022/09/09 12:44:51;;;;;;;2.85;1.50;;;19.60;99.90;;;;;;5033369;28;20022;-40
2022/09/09 12:47:20;;;;;;;5.80;2.13;;;19.90;99.90;;;;;;5013882;28;20390;-43
2022/09/09 12:49:49;;;;;;;5.50;1.27;;;20.00;99.90;;;;;;5022427;28;20581;-40
2022/09/09 12:52:29;;;;;;;2.88;1.48;;;19.90;99.90;;;;;;5014407;28;20071;-39
2022/09/09 12:54:56;;;;;;;2.88;1.80;;;19.80;99.90;;;;;;5022239;28;20025;-39
2022/09/09 12:57:25;;;;;;;1.70;1.30;;;19.60;99.90;;;;;;5031922;28;20568;-40
2022/09/09 12:59:51;;;;;;;5.82;2.22;;;19.40;99.90;;;;;;5019827;28;20053;-42
2022/09/09 13:02:25;;;;;;;2.97;1.73;;;19.30;99.90;;;;;;5017200;28;20030;-40
2022/09/09 13:04:52;;;;;;;1.85;1.25;;;19.30;99.90;;;;;;5022658;28;20469;-40
2022/09/09 13:07:20;;;;;;;3.05;1.70;;;19.20;99.90;;;;;;5033645;28;20488;-40
2022/09/09 13:09:46;;;;;;;4.40;1.92;;;19.20;99.90;;;;;;5016383;28;20058;-33
2022/09/09 13:12:19;;;;;;;8.85;1.83;;;19.10;99.90;;;;;;5032046;28;20032;-37
2022/09/09 13:14:50;;;;;;;2.72;1.27;;;19.10;99.90;;;;;;5029961;28;20084;-39
2022/09/09 13:17:23;;;;;;;3.15;1.50;;;19.20;99.90;;;;;;5039170;28;20095;-40